sensor_id;sensor_type;location;lat;lon;timestamp;temperature;humidity
18281;DHT22;9266;51.132;17.062;2022-12-22T00:00:17;4.00;99.90
18281;DHT22;9266;51.132;17.062;2022-12-22T00:03:03;3.90;99.90
18281;DHT22;9266;51.132;17.062;2022-12-22T00:05:51;3.80;99.90
18281;DHT22;9266;51.132;17.062;2022-12-22T00:08:37;3.70;99.90
18281;DHT22;9266;51.132;17.062;2022-12-22T00:11:21;3.60;99.90
18281;DHT22;9266;51.132;17.062;2022-12-22T00:14:07;3.40;99.90
18281;DHT22;9266;51.132;17.062;2022-12-22T00:16:52;3.50;99.90
18281;DHT22;9266;51.132;17.062;2022-12-22T00:19:36;3.50;99.90
18281;DHT22;9266;51.132;17.062;2022-12-22T00:22:22;3.30;99.90
18281;DHT22;9266;51.132;17.062;2022-12-22T00:25:12;3.20;99.90
18281;DHT22;9266;51.132;17.062;2022-12-22T00:27:57;3.10;99.90
18281;DHT22;9266;51.132;17.062;2022-12-22T00:30:42;3.30;99.90
18281;DHT22;9266;51.132;17.062;2022-12-22T00:33:27;3.30;99.90
18281;DHT22;9266;51.132;17.062;2022-12-22T00:36:11;3.20;99.90
18281;DHT22;9266;51.132;17.062;2022-12-22T00:38:56;3.00;99.90
18281;DHT22;9266;51.132;17.062;2022-12-22T00:41:42;2.80;99.90
18281;DHT22;9266;51.132;17.062;2022-12-22T00:44:27;2.70;99.90
18281;DHT22;9266;51.132;17.062;2022-12-22T00:47:13;2.90;99.90
18281;DHT22;9266;51.132;17.062;2022-12-22T00:49:58;2.90;99.90
18281;DHT22;9266;51.132;17.062;2022-12-22T00:52:43;2.90;99.90
18281;DHT22;9266;51.132;17.062;2022-12-22T00:55:29;2.80;99.90
18281;DHT22;9266;51.132;17.062;2022-12-22T00:58:18;2.90;99.90
18281;DHT22;9266;51.132;17.062;2022-12-22T01:01:03;2.90;99.90
18281;DHT22;9266;51.132;17.062;2022-12-22T01:03:47;2.80;99.90
18281;DHT22;9266;51.132;17.062;2022-12-22T01:06:34;2.80;99.90
18281;DHT22;9266;51.132;17.062;2022-12-22T01:09:20;2.80;99.90
18281;DHT22;9266;51.132;17.062;2022-12-22T01:12:10;2.90;99.90
18281;DHT22;9266;51.132;17.062;2022-12-22T01:14:58;2.90;99.90
18281;DHT22;9266;51.132;17.062;2022-12-22T01:17:42;3.00;99.90
18281;DHT22;9266;51.132;17.062;2022-12-22T01:20:27;3.00;99.90
18281;DHT22;9266;51.132;17.062;2022-12-22T01:23:11;3.00;99.90
18281;DHT22;9266;51.132;17.062;2022-12-22T01:25:56;2.90;99.90
18281;DHT22;9266;51.132;17.062;2022-12-22T01:28:40;3.00;99.90
18281;DHT22;9266;51.132;17.062;2022-12-22T01:31:28;3.00;99.90
18281;DHT22;9266;51.132;17.062;2022-12-22T01:34:13;3.00;99.90
18281;DHT22;9266;51.132;17.062;2022-12-22T01:36:57;3.00;99.90
18281;DHT22;9266;51.132;17.062;2022-12-22T01:39:42;3.00;99.90
18281;DHT22;9266;51.132;17.062;2022-12-22T01:42:27;3.10;99.90
18281;DHT22;9266;51.132;17.062;2022-12-22T01:45:19;3.20;99.90
18281;DHT22;9266;51.132;17.062;2022-12-22T01:48:08;3.20;99.90
18281;DHT22;9266;51.132;17.062;2022-12-22T01:50:53;3.20;99.90
18281;DHT22;9266;51.132;17.062;2022-12-22T01:53:38;3.30;99.90
18281;DHT22;9266;51.132;17.062;2022-12-22T01:56:22;3.20;99.90
18281;DHT22;9266;51.132;17.062;2022-12-22T01:59:07;3.40;99.90
18281;DHT22;9266;51.132;17.062;2022-12-22T02:01:51;3.40;99.90
18281;DHT22;9266;51.132;17.062;2022-12-22T02:04:40;3.40;99.90
18281;DHT22;9266;51.132;17.062;2022-12-22T02:07:48;3.40;99.90
18281;DHT22;9266;51.132;17.062;2022-12-22T02:10:56;3.40;99.90
18281;DHT22;9266;51.132;17.062;2022-12-22T02:13:52;3.40;99.90
18281;DHT22;9266;51.132;17.062;2022-12-22T02:16:43;3.40;99.90
18281;DHT22;9266;51.132;17.062;2022-12-22T02:19:52;3.50;99.90
18281;DHT22;9266;51.132;17.062;2022-12-22T02:22:46;3.40;99.90
18281;DHT22;9266;51.132;17.062;2022-12-22T02:25:40;3.40;99.90
18281;DHT22;9266;51.132;17.062;2022-12-22T02:28:27;3.50;99.90
18281;DHT22;9266;51.132;17.062;2022-12-22T02:31:12;2.00;99.90
18281;DHT22;9266;51.132;17.062;2022-12-22T02:33:57;3.50;99.90
18281;DHT22;9266;51.132;17.062;2022-12-22T02:36:52;3.60;99.90
18281;DHT22;9266;51.132;17.062;2022-12-22T02:39:45;3.50;99.90
18281;DHT22;9266;51.132;17.062;2022-12-22T02:42:34;3.60;99.90
18281;DHT22;9266;51.132;17.062;2022-12-22T02:45:26;3.60;99.90
18281;DHT22;9266;51.132;17.062;2022-12-22T02:48:15;3.60;99.90
18281;DHT22;9266;51.132;17.062;2022-12-22T02:51:04;3.60;99.90
18281;DHT22;9266;51.132;17.062;2022-12-22T02:53:49;3.70;99.90
18281;DHT22;9266;51.132;17.062;2022-12-22T02:56:34;3.80;99.90
18281;DHT22;9266;51.132;17.062;2022-12-22T02:59:19;3.80;99.90
18281;DHT22;9266;51.132;17.062;2022-12-22T03:02:04;3.90;99.90
18281;DHT22;9266;51.132;17.062;2022-12-22T03:04:49;3.80;99.90
18281;DHT22;9266;51.132;17.062;2022-12-22T03:07:34;4.00;99.90
18281;DHT22;9266;51.132;17.062;2022-12-22T03:10:18;3.90;99.90
18281;DHT22;9266;51.132;17.062;2022-12-22T03:13:03;3.80;99.90
18281;DHT22;9266;51.132;17.062;2022-12-22T03:15:47;3.80;99.90
18281;DHT22;9266;51.132;17.062;2022-12-22T03:18:33;2.20;99.90
18281;DHT22;9266;51.132;17.062;2022-12-22T03:21:17;3.80;99.90
18281;DHT22;9266;51.132;17.062;2022-12-22T03:24:02;3.80;99.90
18281;DHT22;9266;51.132;17.062;2022-12-22T03:26:46;3.80;99.90
18281;DHT22;9266;51.132;17.062;2022-12-22T03:29:13;3.80;99.90
18281;DHT22;9266;51.132;17.062;2022-12-22T03:31:40;3.40;99.90
18281;DHT22;9266;51.132;17.062;2022-12-22T03:34:09;3.70;99.90
18281;DHT22;9266;51.132;17.062;2022-12-22T03:36:36;3.80;99.90
18281;DHT22;9266;51.132;17.062;2022-12-22T03:39:03;3.80;99.90
18281;DHT22;9266;51.132;17.062;2022-12-22T03:41:30;3.80;99.90
18281;DHT22;9266;51.132;17.062;2022-12-22T03:44:14;3.90;99.90
18281;DHT22;9266;51.132;17.062;2022-12-22T03:46:59;3.90;99.90
18281;DHT22;9266;51.132;17.062;2022-12-22T03:49:27;4.00;99.90
18281;DHT22;9266;51.132;17.062;2022-12-22T03:51:54;3.90;99.90
18281;DHT22;9266;51.132;17.062;2022-12-22T03:54:24;3.90;99.90
18281;DHT22;9266;51.132;17.062;2022-12-22T03:56:51;3.90;99.90
18281;DHT22;9266;51.132;17.062;2022-12-22T03:59:19;3.90;99.90
18281;DHT22;9266;51.132;17.062;2022-12-22T04:01:48;4.00;99.90
18281;DHT22;9266;51.132;17.062;2022-12-22T04:04:17;4.00;99.90
18281;DHT22;9266;51.132;17.062;2022-12-22T04:06:45;4.00;99.90
18281;DHT22;9266;51.132;17.062;2022-12-22T04:09:13;4.10;99.90
18281;DHT22;9266;51.132;17.062;2022-12-22T04:11:40;4.30;99.90
18281;DHT22;9266;51.132;17.062;2022-12-22T04:14:24;4.30;99.90
18281;DHT22;9266;51.132;17.062;2022-12-22T04:16:51;4.30;99.90
18281;DHT22;9266;51.132;17.062;2022-12-22T04:19:18;4.30;99.90
18281;DHT22;9266;51.132;17.062;2022-12-22T04:21:47;4.30;99.90
18281;DHT22;9266;51.132;17.062;2022-12-22T04:24:14;4.40;99.90
18281;DHT22;9266;51.132;17.062;2022-12-22T04:26:41;4.50;99.90
18281;DHT22;9266;51.132;17.062;2022-12-22T04:29:08;4.40;99.90
18281;DHT22;9266;51.132;17.062;2022-12-22T04:31:35;4.30;99.90
18281;DHT22;9266;51.132;17.062;2022-12-22T04:34:02;4.30;99.90
18281;DHT22;9266;51.132;17.062;2022-12-22T04:36:29;4.30;99.90
18281;DHT22;9266;51.132;17.062;2022-12-22T04:38:57;4.30;99.90
18281;DHT22;9266;51.132;17.062;2022-12-22T04:41:25;4.20;99.90
18281;DHT22;9266;51.132;17.062;2022-12-22T04:43:52;4.20;99.90
18281;DHT22;9266;51.132;17.062;2022-12-22T04:46:19;4.20;99.90
18281;DHT22;9266;51.132;17.062;2022-12-22T04:48:46;4.30;99.90
18281;DHT22;9266;51.132;17.062;2022-12-22T04:51:13;4.20;99.90
18281;DHT22;9266;51.132;17.062;2022-12-22T04:53:40;4.20;99.90
18281;DHT22;9266;51.132;17.062;2022-12-22T04:56:09;4.20;99.90
18281;DHT22;9266;51.132;17.062;2022-12-22T04:58:36;4.10;99.90
18281;DHT22;9266;51.132;17.062;2022-12-22T05:01:10;4.00;99.90
18281;DHT22;9266;51.132;17.062;2022-12-22T05:03:38;3.90;99.90
18281;DHT22;9266;51.132;17.062;2022-12-22T05:06:06;3.80;99.90
18281;DHT22;9266;51.132;17.062;2022-12-22T05:08:33;3.80;99.90
18281;DHT22;9266;51.132;17.062;2022-12-22T05:11:00;3.80;99.90
18281;DHT22;9266;51.132;17.062;2022-12-22T05:13:30;3.90;99.90
18281;DHT22;9266;51.132;17.062;2022-12-22T05:16:03;4.10;99.90
18281;DHT22;9266;51.132;17.062;2022-12-22T05:18:30;4.20;99.90
18281;DHT22;9266;51.132;17.062;2022-12-22T05:20:58;4.30;99.90
18281;DHT22;9266;51.132;17.062;2022-12-22T05:23:27;4.40;99.90
18281;DHT22;9266;51.132;17.062;2022-12-22T05:25:54;4.40;99.90
18281;DHT22;9266;51.132;17.062;2022-12-22T05:28:21;4.50;99.90
18281;DHT22;9266;51.132;17.062;2022-12-22T05:30:50;4.70;99.90
18281;DHT22;9266;51.132;17.062;2022-12-22T05:33:17;4.60;99.90
18281;DHT22;9266;51.132;17.062;2022-12-22T05:35:44;4.60;99.90
18281;DHT22;9266;51.132;17.062;2022-12-22T05:38:11;4.70;99.90
18281;DHT22;9266;51.132;17.062;2022-12-22T05:40:38;4.60;99.90
18281;DHT22;9266;51.132;17.062;2022-12-22T05:43:05;4.70;99.90
18281;DHT22;9266;51.132;17.062;2022-12-22T05:45:34;4.70;99.90
18281;DHT22;9266;51.132;17.062;2022-12-22T05:48:03;4.80;99.90
18281;DHT22;9266;51.132;17.062;2022-12-22T05:50:30;4.80;99.90
18281;DHT22;9266;51.132;17.062;2022-12-22T05:52:57;4.80;99.90
18281;DHT22;9266;51.132;17.062;2022-12-22T05:55:24;4.90;99.90
18281;DHT22;9266;51.132;17.062;2022-12-22T05:57:51;4.90;99.90
18281;DHT22;9266;51.132;17.062;2022-12-22T06:00:19;5.00;99.90
18281;DHT22;9266;51.132;17.062;2022-12-22T06:02:46;4.90;99.90
18281;DHT22;9266;51.132;17.062;2022-12-22T06:05:15;5.00;99.90
18281;DHT22;9266;51.132;17.062;2022-12-22T06:07:42;5.00;99.90
18281;DHT22;9266;51.132;17.062;2022-12-22T06:10:10;5.00;99.90
18281;DHT22;9266;51.132;17.062;2022-12-22T06:12:38;5.10;99.90
18281;DHT22;9266;51.132;17.062;2022-12-22T06:15:06;5.10;99.90
18281;DHT22;9266;51.132;17.062;2022-12-22T06:17:34;5.10;99.90
18281;DHT22;9266;51.132;17.062;2022-12-22T06:20:01;5.20;99.90
18281;DHT22;9266;51.132;17.062;2022-12-22T06:22:29;5.30;99.90
18281;DHT22;9266;51.132;17.062;2022-12-22T06:24:56;5.30;99.90
18281;DHT22;9266;51.132;17.062;2022-12-22T06:27:23;5.30;99.90
18281;DHT22;9266;51.132;17.062;2022-12-22T06:29:50;5.30;99.90
18281;DHT22;9266;51.132;17.062;2022-12-22T06:32:17;5.40;99.90
18281;DHT22;9266;51.132;17.062;2022-12-22T06:34:45;5.50;99.90
18281;DHT22;9266;51.132;17.062;2022-12-22T06:37:12;5.60;99.90
18281;DHT22;9266;51.132;17.062;2022-12-22T06:39:40;5.60;99.90
18281;DHT22;9266;51.132;17.062;2022-12-22T06:42:08;5.60;99.90
18281;DHT22;9266;51.132;17.062;2022-12-22T06:44:53;5.60;99.90
18281;DHT22;9266;51.132;17.062;2022-12-22T06:47:20;5.70;99.90
18281;DHT22;9266;51.132;17.062;2022-12-22T06:49:47;5.80;99.90
18281;DHT22;9266;51.132;17.062;2022-12-22T06:52:14;5.90;99.90
18281;DHT22;9266;51.132;17.062;2022-12-22T06:54:43;6.00;99.90
18281;DHT22;9266;51.132;17.062;2022-12-22T06:57:10;6.00;99.90
18281;DHT22;9266;51.132;17.062;2022-12-22T06:59:37;6.00;99.90
18281;DHT22;9266;51.132;17.062;2022-12-22T07:02:04;6.00;99.90
18281;DHT22;9266;51.132;17.062;2022-12-22T07:04:31;5.90;99.90
18281;DHT22;9266;51.132;17.062;2022-12-22T07:06:58;5.90;99.90
18281;DHT22;9266;51.132;17.062;2022-12-22T07:09:25;5.90;99.90
18281;DHT22;9266;51.132;17.062;2022-12-22T07:11:53;5.90;99.90
18281;DHT22;9266;51.132;17.062;2022-12-22T07:14:20;5.90;99.90
18281;DHT22;9266;51.132;17.062;2022-12-22T07:16:48;5.90;99.90
18281;DHT22;9266;51.132;17.062;2022-12-22T07:19:15;5.90;99.90
18281;DHT22;9266;51.132;17.062;2022-12-22T07:24:09;5.80;99.90
18281;DHT22;9266;51.132;17.062;2022-12-22T07:26:36;5.90;99.90
18281;DHT22;9266;51.132;17.062;2022-12-22T07:29:05;5.90;99.90
18281;DHT22;9266;51.132;17.062;2022-12-22T07:31:32;5.90;99.90
18281;DHT22;9266;51.132;17.062;2022-12-22T07:33:59;6.00;99.90
18281;DHT22;9266;51.132;17.062;2022-12-22T07:36:26;6.00;99.90
18281;DHT22;9266;51.132;17.062;2022-12-22T07:38:53;6.00;99.90
18281;DHT22;9266;51.132;17.062;2022-12-22T07:41:20;6.00;99.90
18281;DHT22;9266;51.132;17.062;2022-12-22T07:44:06;6.10;99.90
18281;DHT22;9266;51.132;17.062;2022-12-22T07:46:35;6.10;99.90
18281;DHT22;9266;51.132;17.062;2022-12-22T07:49:02;6.20;99.90
18281;DHT22;9266;51.132;17.062;2022-12-22T07:51:47;6.30;99.90
18281;DHT22;9266;51.132;17.062;2022-12-22T07:54:14;6.30;99.90
18281;DHT22;9266;51.132;17.062;2022-12-22T07:56:43;4.70;99.90
18281;DHT22;9266;51.132;17.062;2022-12-22T07:59:12;6.40;99.90
18281;DHT22;9266;51.132;17.062;2022-12-22T08:01:39;7.30;99.90
18281;DHT22;9266;51.132;17.062;2022-12-22T08:04:06;6.50;99.90
18281;DHT22;9266;51.132;17.062;2022-12-22T08:06:34;6.50;99.90
18281;DHT22;9266;51.132;17.062;2022-12-22T08:09:02;6.50;99.90
18281;DHT22;9266;51.132;17.062;2022-12-22T08:11:29;6.50;99.90
18281;DHT22;9266;51.132;17.062;2022-12-22T08:13:56;6.60;99.90
18281;DHT22;9266;51.132;17.062;2022-12-22T08:16:25;6.60;99.90
18281;DHT22;9266;51.132;17.062;2022-12-22T08:18:52;6.70;99.90
18281;DHT22;9266;51.132;17.062;2022-12-22T08:21:19;6.70;99.90
18281;DHT22;9266;51.132;17.062;2022-12-22T08:23:46;6.80;99.90
18281;DHT22;9266;51.132;17.062;2022-12-22T08:26:15;6.80;99.90
18281;DHT22;9266;51.132;17.062;2022-12-22T08:28:46;6.80;99.90
18281;DHT22;9266;51.132;17.062;2022-12-22T08:31:16;6.80;99.90
18281;DHT22;9266;51.132;17.062;2022-12-22T08:33:46;6.90;99.90
18281;DHT22;9266;51.132;17.062;2022-12-22T08:36:14;6.80;99.90
18281;DHT22;9266;51.132;17.062;2022-12-22T08:38:42;6.80;99.90
18281;DHT22;9266;51.132;17.062;2022-12-22T08:41:12;6.70;99.90
18281;DHT22;9266;51.132;17.062;2022-12-22T08:43:40;6.70;99.90
18281;DHT22;9266;51.132;17.062;2022-12-22T08:46:07;6.60;99.90
18281;DHT22;9266;51.132;17.062;2022-12-22T08:48:34;6.60;99.90
18281;DHT22;9266;51.132;17.062;2022-12-22T08:51:03;6.70;99.90
18281;DHT22;9266;51.132;17.062;2022-12-22T08:53:30;6.70;99.90
18281;DHT22;9266;51.132;17.062;2022-12-22T08:55:57;6.70;99.90
18281;DHT22;9266;51.132;17.062;2022-12-22T08:58:24;6.90;99.90
18281;DHT22;9266;51.132;17.062;2022-12-22T09:00:51;6.90;99.90
18281;DHT22;9266;51.132;17.062;2022-12-22T09:03:18;7.10;99.90
18281;DHT22;9266;51.132;17.062;2022-12-22T09:05:45;7.30;99.90
18281;DHT22;9266;51.132;17.062;2022-12-22T09:08:13;7.40;99.90
18281;DHT22;9266;51.132;17.062;2022-12-22T09:10:41;7.50;99.90
18281;DHT22;9266;51.132;17.062;2022-12-22T09:13:09;7.50;99.90
18281;DHT22;9266;51.132;17.062;2022-12-22T09:15:36;7.50;99.90
18281;DHT22;9266;51.132;17.062;2022-12-22T09:18:03;7.60;99.90
18281;DHT22;9266;51.132;17.062;2022-12-22T09:20:30;7.70;99.90
18281;DHT22;9266;51.132;17.062;2022-12-22T09:22:58;7.80;99.90
18281;DHT22;9266;51.132;17.062;2022-12-22T09:25:27;7.70;99.90
18281;DHT22;9266;51.132;17.062;2022-12-22T09:27:54;7.70;99.90
18281;DHT22;9266;51.132;17.062;2022-12-22T09:30:23;7.60;99.90
18281;DHT22;9266;51.132;17.062;2022-12-22T09:32:53;7.70;99.90
18281;DHT22;9266;51.132;17.062;2022-12-22T09:35:20;7.70;99.90
18281;DHT22;9266;51.132;17.062;2022-12-22T09:37:48;7.90;99.90
18281;DHT22;9266;51.132;17.062;2022-12-22T09:40:15;8.00;99.90
18281;DHT22;9266;51.132;17.062;2022-12-22T09:42:47;8.00;99.90
18281;DHT22;9266;51.132;17.062;2022-12-22T09:45:16;8.10;99.90
18281;DHT22;9266;51.132;17.062;2022-12-22T09:47:47;8.10;99.90
18281;DHT22;9266;51.132;17.062;2022-12-22T09:50:20;8.40;99.90
18281;DHT22;9266;51.132;17.062;2022-12-22T09:52:51;8.10;99.90
18281;DHT22;9266;51.132;17.062;2022-12-22T09:55:31;8.00;99.90
18281;DHT22;9266;51.132;17.062;2022-12-22T09:58:04;7.90;99.90
18281;DHT22;9266;51.132;17.062;2022-12-22T10:00:35;7.90;99.90
18281;DHT22;9266;51.132;17.062;2022-12-22T10:03:09;7.90;99.90
18281;DHT22;9266;51.132;17.062;2022-12-22T10:05:44;8.10;99.90
18281;DHT22;9266;51.132;17.062;2022-12-22T10:08:18;8.00;99.90
18281;DHT22;9266;51.132;17.062;2022-12-22T10:10:52;8.10;99.90
18281;DHT22;9266;51.132;17.062;2022-12-22T10:13:21;8.10;99.90
18281;DHT22;9266;51.132;17.062;2022-12-22T10:15:48;8.20;99.90
18281;DHT22;9266;51.132;17.062;2022-12-22T10:18:18;8.20;99.90
18281;DHT22;9266;51.132;17.062;2022-12-22T10:20:47;8.30;99.90
18281;DHT22;9266;51.132;17.062;2022-12-22T10:23:33;8.40;99.90
18281;DHT22;9266;51.132;17.062;2022-12-22T10:26:06;8.50;99.90
18281;DHT22;9266;51.132;17.062;2022-12-22T10:28:37;8.50;99.90
18281;DHT22;9266;51.132;17.062;2022-12-22T10:31:12;8.60;99.90
18281;DHT22;9266;51.132;17.062;2022-12-22T10:33:40;8.60;99.90
18281;DHT22;9266;51.132;17.062;2022-12-22T10:36:07;8.60;99.90
18281;DHT22;9266;51.132;17.062;2022-12-22T10:38:36;8.60;99.90
18281;DHT22;9266;51.132;17.062;2022-12-22T10:41:11;8.60;99.90
18281;DHT22;9266;51.132;17.062;2022-12-22T10:43:49;8.50;99.90
18281;DHT22;9266;51.132;17.062;2022-12-22T10:46:17;8.50;99.90
18281;DHT22;9266;51.132;17.062;2022-12-22T10:48:44;8.40;99.90
18281;DHT22;9266;51.132;17.062;2022-12-22T10:51:13;8.40;99.90
18281;DHT22;9266;51.132;17.062;2022-12-22T10:53:45;8.30;99.90
18281;DHT22;9266;51.132;17.062;2022-12-22T10:56:24;8.20;99.90
18281;DHT22;9266;51.132;17.062;2022-12-22T10:58:54;8.10;99.90
18281;DHT22;9266;51.132;17.062;2022-12-22T11:01:25;8.10;99.90
18281;DHT22;9266;51.132;17.062;2022-12-22T11:03:53;8.10;99.90
18281;DHT22;9266;51.132;17.062;2022-12-22T11:06:20;8.00;99.90
18281;DHT22;9266;51.132;17.062;2022-12-22T11:08:47;8.00;99.90
18281;DHT22;9266;51.132;17.062;2022-12-22T11:11:22;7.90;99.90
18281;DHT22;9266;51.132;17.062;2022-12-22T11:14:04;7.90;99.90
18281;DHT22;9266;51.132;17.062;2022-12-22T11:16:41;8.00;99.90
18281;DHT22;9266;51.132;17.062;2022-12-22T11:22:14;8.10;99.90
18281;DHT22;9266;51.132;17.062;2022-12-22T11:24:54;8.00;99.90
18281;DHT22;9266;51.132;17.062;2022-12-22T11:27:31;9.50;99.90
18281;DHT22;9266;51.132;17.062;2022-12-22T11:30:06;8.00;99.90
18281;DHT22;9266;51.132;17.062;2022-12-22T11:32:57;8.10;99.90
18281;DHT22;9266;51.132;17.062;2022-12-22T11:35:40;8.10;99.90
18281;DHT22;9266;51.132;17.062;2022-12-22T11:38:15;8.10;99.90
18281;DHT22;9266;51.132;17.062;2022-12-22T11:40:48;8.10;99.90
18281;DHT22;9266;51.132;17.062;2022-12-22T11:43:22;8.10;99.90
18281;DHT22;9266;51.132;17.062;2022-12-22T11:46:05;7.70;99.90
18281;DHT22;9266;51.132;17.062;2022-12-22T11:49:08;8.00;99.90
18281;DHT22;9266;51.132;17.062;2022-12-22T11:51:58;8.00;99.90
18281;DHT22;9266;51.132;17.062;2022-12-22T11:54:51;8.00;99.90
18281;DHT22;9266;51.132;17.062;2022-12-22T11:57:31;8.10;99.90
18281;DHT22;9266;51.132;17.062;2022-12-22T12:00:04;8.20;99.90
18281;DHT22;9266;51.132;17.062;2022-12-22T12:08:57;8.40;99.90
18281;DHT22;9266;51.132;17.062;2022-12-22T12:11:33;8.40;99.90
18281;DHT22;9266;51.132;17.062;2022-12-22T12:14:08;8.40;99.90
18281;DHT22;9266;51.132;17.062;2022-12-22T12:16:42;8.40;99.90
18281;DHT22;9266;51.132;17.062;2022-12-22T12:19:31;8.40;99.90
18281;DHT22;9266;51.132;17.062;2022-12-22T12:22:04;8.40;99.90
18281;DHT22;9266;51.132;17.062;2022-12-22T12:24:58;8.50;99.90
18281;DHT22;9266;51.132;17.062;2022-12-22T12:27:48;8.50;99.90
18281;DHT22;9266;51.132;17.062;2022-12-22T12:30:17;8.60;99.90
18281;DHT22;9266;51.132;17.062;2022-12-22T12:32:48;8.60;99.90
18281;DHT22;9266;51.132;17.062;2022-12-22T12:35:33;8.60;99.90
18281;DHT22;9266;51.132;17.062;2022-12-22T12:38:09;8.60;99.90
18281;DHT22;9266;51.132;17.062;2022-12-22T12:40:43;8.60;99.90
18281;DHT22;9266;51.132;17.062;2022-12-22T12:43:14;8.60;99.90
18281;DHT22;9266;51.132;17.062;2022-12-22T12:45:43;8.70;99.90
18281;DHT22;9266;51.132;17.062;2022-12-22T12:48:38;8.70;99.90
18281;DHT22;9266;51.132;17.062;2022-12-22T12:54:39;8.80;99.90
18281;DHT22;9266;51.132;17.062;2022-12-22T12:57:21;9.00;99.90
18281;DHT22;9266;51.132;17.062;2022-12-22T12:59:49;9.20;99.90
18281;DHT22;9266;51.132;17.062;2022-12-22T13:02:35;9.20;99.90
18281;DHT22;9266;51.132;17.062;2022-12-22T13:05:33;9.20;99.90
18281;DHT22;9266;51.132;17.062;2022-12-22T13:08:19;9.30;99.90
18281;DHT22;9266;51.132;17.062;2022-12-22T13:13:51;9.30;99.90
18281;DHT22;9266;51.132;17.062;2022-12-22T13:16:27;9.40;99.90
18281;DHT22;9266;51.132;17.062;2022-12-22T13:18:55;9.50;99.90
18281;DHT22;9266;51.132;17.062;2022-12-22T13:21:27;9.50;99.90
18281;DHT22;9266;51.132;17.062;2022-12-22T13:24:03;9.30;99.90
18281;DHT22;9266;51.132;17.062;2022-12-22T13:26:33;9.00;99.90
18281;DHT22;9266;51.132;17.062;2022-12-22T13:29:17;8.80;99.90
18281;DHT22;9266;51.132;17.062;2022-12-22T13:31:46;8.80;99.90
18281;DHT22;9266;51.132;17.062;2022-12-22T13:34:40;8.80;99.90
18281;DHT22;9266;51.132;17.062;2022-12-22T13:37:16;8.70;99.90
18281;DHT22;9266;51.132;17.062;2022-12-22T13:42:47;8.70;99.90
18281;DHT22;9266;51.132;17.062;2022-12-22T13:45:27;8.70;99.90
18281;DHT22;9266;51.132;17.062;2022-12-22T13:47:55;8.70;99.90
18281;DHT22;9266;51.132;17.062;2022-12-22T13:50:25;8.80;99.90
18281;DHT22;9266;51.132;17.062;2022-12-22T13:52:55;8.70;99.90
18281;DHT22;9266;51.132;17.062;2022-12-22T13:55:25;8.70;99.90
18281;DHT22;9266;51.132;17.062;2022-12-22T13:57:55;8.70;99.90
18281;DHT22;9266;51.132;17.062;2022-12-22T14:00:29;8.60;99.90
18281;DHT22;9266;51.132;17.062;2022-12-22T14:02:56;8.60;99.90
18281;DHT22;9266;51.132;17.062;2022-12-22T14:05:29;8.60;99.90
18281;DHT22;9266;51.132;17.062;2022-12-22T14:07:59;8.60;99.90
18281;DHT22;9266;51.132;17.062;2022-12-22T14:10:29;8.50;99.90
18281;DHT22;9266;51.132;17.062;2022-12-22T14:12:58;8.60;99.90
18281;DHT22;9266;51.132;17.062;2022-12-22T14:15:28;8.70;99.90
18281;DHT22;9266;51.132;17.062;2022-12-22T14:17:55;8.70;99.90
18281;DHT22;9266;51.132;17.062;2022-12-22T14:20:25;8.60;99.90
18281;DHT22;9266;51.132;17.062;2022-12-22T14:22:54;8.60;99.90
18281;DHT22;9266;51.132;17.062;2022-12-22T14:25:27;8.50;99.90
18281;DHT22;9266;51.132;17.062;2022-12-22T14:27:56;8.50;99.90
18281;DHT22;9266;51.132;17.062;2022-12-22T14:30:26;8.50;99.90
18281;DHT22;9266;51.132;17.062;2022-12-22T14:32:56;8.60;99.90
18281;DHT22;9266;51.132;17.062;2022-12-22T14:35:39;8.60;99.90
18281;DHT22;9266;51.132;17.062;2022-12-22T14:38:19;8.50;99.90
18281;DHT22;9266;51.132;17.062;2022-12-22T14:40:47;8.50;99.90
18281;DHT22;9266;51.132;17.062;2022-12-22T14:43:24;8.50;99.90
18281;DHT22;9266;51.132;17.062;2022-12-22T14:46:00;8.40;99.90
18281;DHT22;9266;51.132;17.062;2022-12-22T14:48:32;8.40;99.90
18281;DHT22;9266;51.132;17.062;2022-12-22T14:51:01;8.40;99.90
18281;DHT22;9266;51.132;17.062;2022-12-22T14:53:36;8.50;99.90
18281;DHT22;9266;51.132;17.062;2022-12-22T14:56:10;8.50;99.90
18281;DHT22;9266;51.132;17.062;2022-12-22T14:58:39;8.50;99.90
18281;DHT22;9266;51.132;17.062;2022-12-22T15:01:19;8.60;99.90
18281;DHT22;9266;51.132;17.062;2022-12-22T15:04:00;8.60;99.90
18281;DHT22;9266;51.132;17.062;2022-12-22T15:06:39;8.60;99.90
18281;DHT22;9266;51.132;17.062;2022-12-22T15:09:25;8.60;99.90
18281;DHT22;9266;51.132;17.062;2022-12-22T15:11:55;8.60;99.90
18281;DHT22;9266;51.132;17.062;2022-12-22T15:14:30;8.60;99.90
18281;DHT22;9266;51.132;17.062;2022-12-22T15:16:59;8.60;99.90
18281;DHT22;9266;51.132;17.062;2022-12-22T15:19:31;8.60;99.90
18281;DHT22;9266;51.132;17.062;2022-12-22T15:21:59;8.60;99.90
18281;DHT22;9266;51.132;17.062;2022-12-22T15:24:26;9.40;99.90
18281;DHT22;9266;51.132;17.062;2022-12-22T15:26:54;8.70;99.90
18281;DHT22;9266;51.132;17.062;2022-12-22T15:29:21;8.70;99.90
18281;DHT22;9266;51.132;17.062;2022-12-22T15:31:48;8.70;99.90
18281;DHT22;9266;51.132;17.062;2022-12-22T15:34:27;8.80;99.90
18281;DHT22;9266;51.132;17.062;2022-12-22T15:36:56;8.70;99.90
18281;DHT22;9266;51.132;17.062;2022-12-22T15:39:23;8.70;99.90
18281;DHT22;9266;51.132;17.062;2022-12-22T15:41:50;8.60;99.90
18281;DHT22;9266;51.132;17.062;2022-12-22T15:44:19;8.70;99.90
18281;DHT22;9266;51.132;17.062;2022-12-22T15:46:52;8.70;99.90
18281;DHT22;9266;51.132;17.062;2022-12-22T15:49:21;8.70;99.90
18281;DHT22;9266;51.132;17.062;2022-12-22T15:51:52;8.70;99.90
18281;DHT22;9266;51.132;17.062;2022-12-22T15:54:21;8.70;99.90
18281;DHT22;9266;51.132;17.062;2022-12-22T15:56:50;8.80;99.90
18281;DHT22;9266;51.132;17.062;2022-12-22T15:59:19;8.80;99.90
18281;DHT22;9266;51.132;17.062;2022-12-22T16:01:46;9.80;99.90
18281;DHT22;9266;51.132;17.062;2022-12-22T16:04:15;8.90;99.90
18281;DHT22;9266;51.132;17.062;2022-12-22T16:06:42;8.90;99.90
18281;DHT22;9266;51.132;17.062;2022-12-22T16:09:15;8.90;99.90
18281;DHT22;9266;51.132;17.062;2022-12-22T16:11:46;8.90;99.90
18281;DHT22;9266;51.132;17.062;2022-12-22T16:14:15;9.00;99.90
18281;DHT22;9266;51.132;17.062;2022-12-22T16:16:42;9.00;99.90
18281;DHT22;9266;51.132;17.062;2022-12-22T16:19:13;9.00;99.90
18281;DHT22;9266;51.132;17.062;2022-12-22T16:21:41;9.00;99.90
18281;DHT22;9266;51.132;17.062;2022-12-22T16:26:43;9.10;99.90
18281;DHT22;9266;51.132;17.062;2022-12-22T16:29:14;9.10;99.90
18281;DHT22;9266;51.132;17.062;2022-12-22T16:31:42;9.00;99.90
18281;DHT22;9266;51.132;17.062;2022-12-22T16:34:10;9.10;99.90
18281;DHT22;9266;51.132;17.062;2022-12-22T16:36:37;9.10;99.90
18281;DHT22;9266;51.132;17.062;2022-12-22T16:39:04;9.10;99.90
18281;DHT22;9266;51.132;17.062;2022-12-22T16:41:31;9.10;99.90
18281;DHT22;9266;51.132;17.062;2022-12-22T16:43:59;9.00;99.90
18281;DHT22;9266;51.132;17.062;2022-12-22T16:46:28;9.10;99.90
18281;DHT22;9266;51.132;17.062;2022-12-22T16:48:58;9.10;99.90
18281;DHT22;9266;51.132;17.062;2022-12-22T16:51:28;9.10;99.90